createdAt,value
2022-08-08T00:03:59.696Z,1021.10
2022-08-08T00:19:00.488Z,1021.10
2022-08-08T00:34:18.515Z,1021.11
2022-08-08T00:49:22.022Z,1021.11
2022-08-08T01:04:12.689Z,1021.06
2022-08-08T01:19:25.490Z,1021.09
2022-08-08T01:34:20.269Z,1021.04
2022-08-08T01:49:23.325Z,1020.97
2022-08-08T02:04:25.846Z,1020.87
2022-08-08T02:20:08.061Z,1020.99
2022-08-08T02:34:35.693Z,1020.93
2022-08-08T02:49:51.065Z,1021.12
2022-08-08T03:05:05.090Z,1020.97
2022-08-08T03:19:51.561Z,1021.08
2022-08-08T03:34:52.362Z,1020.95
2022-08-08T03:50:01.149Z,1021.09
2022-08-08T04:04:57.931Z,1021.32
2022-08-08T04:19:58.036Z,1021.32
2022-08-08T04:34:58.812Z,1021.46
2022-08-08T04:50:04.564Z,1021.64
2022-08-08T05:05:04.897Z,1021.60
2022-08-08T05:20:13.293Z,1021.71
2022-08-08T05:35:13.565Z,1021.81
2022-08-08T05:50:14.971Z,1021.81
2022-08-08T06:05:33.576Z,1021.92
2022-08-08T06:20:25.745Z,1021.90
2022-08-08T06:36:03.926Z,1022.00
2022-08-08T06:50:33.904Z,1022.11
2022-08-08T07:05:40.326Z,1022.12
2022-08-08T07:20:50.497Z,1022.18
2022-08-08T07:35:48.642Z,1022.24
2022-08-08T07:50:52.510Z,1022.39
2022-08-08T08:05:53.657Z,1022.40
2022-08-08T08:20:54.887Z,1022.38
2022-08-08T08:36:19.340Z,1022.36
2022-08-08T08:51:03.345Z,1022.42
2022-08-08T09:06:04.269Z,1022.41
2022-08-08T09:21:58.132Z,1022.29
2022-08-08T09:36:19.210Z,1022.33
2022-08-08T09:51:23.103Z,1022.37
2022-08-08T10:06:29.496Z,1022.17
2022-08-08T10:21:32.897Z,1022.13
2022-08-08T10:36:34.410Z,1022.11
2022-08-08T10:51:47.178Z,1021.97
2022-08-08T11:06:47.490Z,1021.91
2022-08-08T11:21:55.515Z,1021.85
2022-08-08T11:36:58.562Z,1021.83
2022-08-08T11:51:59.319Z,1021.77
2022-08-08T12:07:04.654Z,1021.73
2022-08-08T12:22:13.910Z,1021.67
2022-08-08T12:37:14.413Z,1021.64
2022-08-08T12:52:28.644Z,1021.46
2022-08-08T13:08:03.873Z,1021.36
2022-08-08T13:22:28.515Z,1021.38
2022-08-08T13:38:05.214Z,1021.47
2022-08-08T13:52:37.948Z,1021.42
2022-08-08T14:07:42.400Z,1021.37
2022-08-08T14:22:43.163Z,1021.39
2022-08-08T14:38:00.922Z,1021.35
2022-08-08T14:52:49.988Z,1021.36
2022-08-08T15:07:50.615Z,1021.29
2022-08-08T15:22:57.373Z,1021.23
2022-08-08T15:37:58.485Z,1021.18
2022-08-08T15:53:00.614Z,1021.19
2022-08-08T16:08:01.710Z,1021.36
2022-08-08T16:23:04.896Z,1021.27
2022-08-08T16:38:12.368Z,1021.35
2022-08-08T16:55:05.351Z,1021.34
2022-08-08T17:08:20.545Z,1021.36
2022-08-08T17:23:58.564Z,1021.51
2022-08-08T17:38:31.113Z,1021.52
2022-08-08T17:53:43.170Z,1021.68
2022-08-08T18:08:41.916Z,1021.80
2022-08-08T18:23:52.799Z,1021.95
2022-08-08T18:38:49.932Z,1022.15
2022-08-08T18:54:02.895Z,1022.37
2022-08-08T19:08:58.743Z,1022.52
2022-08-08T19:23:59.364Z,1022.67
2022-08-08T19:39:03.414Z,1022.76
2022-08-08T19:54:04.010Z,1022.87
2022-08-08T20:09:09.143Z,1022.95
2022-08-08T20:24:10.846Z,1023.11
2022-08-08T20:39:11.113Z,1023.22
2022-08-08T20:54:14.239Z,1023.28
2022-08-08T21:09:17.996Z,1023.25
2022-08-08T21:24:30.078Z,1023.26
2022-08-08T21:39:54.613Z,1023.41
2022-08-08T21:55:01.903Z,1023.49
2022-08-08T22:09:40.927Z,1023.40
2022-08-08T22:24:44.521Z,1023.55
2022-08-08T22:40:00.135Z,1023.61
2022-08-08T22:55:04.622Z,1023.56
2022-08-08T23:09:58.750Z,1023.56
2022-08-08T23:25:00.215Z,1023.65
2022-08-08T23:40:01.396Z,1023.61
2022-08-08T23:55:14.223Z,1023.69
